Blue Hill Meteorological Observatory

42° 12' 44"N, 71° 06' 53"W, Elevation 635 ft.
Eastern Time

Hourly observations for the last 72 hours

Date Time Temperature (°F) Humi-
dity

(%)
Wind
(mph)
Pressure Rain (in) Sun
(W/m2)
ET
(in)
Air Dew 6 Hour 1 Hr 3 Hr 6 Hr Day
Alt
(in)
Sea
Level

(mb)
Max Min
11 03:00 19.5 11.3 70 NNW 10 G 11 30.20 1022.7 0.00 0 0.002
11 02:00 19.4 12.5 74 NNW 8 G 10 30.21 1023.1 0.00 0 0.001
11 01:00 20.7 12.1 27.2 20.6 69 NNW 10 G 11 30.20 1022.7 0.00 0 0.000
11 00:00 22.0 12.4 66 N 10 G 16 30.19 1022.4 0.00 0 0.059
10 23:00 23.0 13.0 65 N 9 G 14 30.20 1022.7 0.00 0 0.058
10 22:00 23.5 13.1 64 N 7 G 11 30.20 1022.6 0.00 0 0.057
10 21:00 25.0 13.8 62 N 9 G 13 30.19 1022.4 0.00 0 0.055
10 20:00 25.8 13.8 60 N 8 G 11 30.18 1022.0 0.00 0 0.053
10 19:00 27.1 14.3 35.2 27.1 58 N 9 G 14 30.16 1021.5 0.00 0 0.051
10 18:00 28.0 14.7 57 N 10 G 13 30.15 1020.9 0.00 0 0.049
10 17:00 29.3 15.5 56 N 9 G 11 30.13 1020.5 0.00 0 0.047
10 16:00 31.7 16.5 53 N 7 G 12 30.13 1020.2 0.00 9 0.045
10 15:00 33.9 17.7 51 NW 10 G 17 30.12 1019.9 0.00 90 0.041
10 14:00 34.4 19.0 53 NNW 9 G 16 30.11 1019.6 0.00 255 0.035
10 13:00 35.0 18.7 35.4 22.5 51 N 6 G 10 30.10 1019.3 0.00 348 0.028
10 12:00 35.4 20.0 53 NNW 6 G 12 30.10 1019.3 0.00 388 0.022
10 11:00 33.4 20.2 58 NNW 9 G 13 30.12 1020.0 0.00 366 0.016
10 10:00 31.4 19.9 62 N 10 G 19 30.13 1020.3 0.00 329 0.011
10 09:00 27.6 19.4 71 NNW 10 G 17 30.13 1020.2 0.00 221 0.008
10 08:00 24.1 17.6 76 N 12 G 17 30.10 1019.3 0.00 91 0.007
10 07:00 22.5 17.0 24.2 22.5 79 NNW 13 G 18 30.09 1019.0 0.00 0 0.006
10 06:00 22.7 16.6 77 NNW 15 G 19 30.08 1018.7 0.00 0 0.005
10 05:00 23.0 16.6 76 NNW 13 G 17 30.08 1018.8 0.00 0 0.004
10 04:00 23.6 16.5 74 NW 11 G 16 30.09 1019.0 0.00 0 0.003
10 03:00 23.7 16.6 74 NW 12 G 15 30.10 1019.3 0.00 0 0.002
10 02:00 23.3 16.6 75 NW 13 G 16 30.11 1019.7 0.00 0 0.001
10 01:00 22.5 16.4 27.4 22.4 77 NW 14 G 16 30.12 1020.0 0.00 0 0.000
10 00:00 24.5 16.1 70 W 10 G 12 30.16 1021.2 0.00 0 0.054
9 23:00 25.8 17.0 69 W 11 G 18 30.17 1021.7 0.00 0 0.052
9 22:00 26.1 17.0 68 W 13 G 17 30.17 1021.5 0.00 0 0.050
9 21:00 26.6 17.1 67 WSW 13 G 20 30.19 1022.3 0.00 0 0.048
9 20:00 26.8 17.3 67 WSW 13 G 17 30.20 1022.8 0.00 0 0.046
9 19:00 27.4 17.5 32.6 27.3 66 SW 13 G 19 30.22 1023.3 0.00 0 0.044
9 18:00 27.8 17.9 66 SW 13 G 22 30.22 1023.4 0.00 0 0.042
9 17:00 28.3 18.4 66 SW 13 G 18 30.25 1024.6 0.00 0 0.040
9 16:00 29.5 18.8 64 SW 12 G 19 30.26 1024.7 0.00 9 0.038
9 15:00 30.9 19.4 62 WSW 13 G 19 30.28 1025.6 0.00 62 0.034
9 14:00 31.8 19.5 60 WSW 14 G 20 30.31 1026.3 0.00 195 0.028
9 13:00 32.1 19.4 32.2 17.7 59 W 7 G 18 30.34 1027.5 0.00 308 0.022
9 12:00 31.5 19.2 60 SW 11 G 15 30.36 1028.1 0.00 366 0.016
9 11:00 28.2 19.7 70 WSW 10 G 17 30.40 1029.5 0.00 362 0.012
9 10:00 24.2 17.7 76 WSW 10 G 13 30.45 1031.3 0.00 185 0.010
9 09:00 21.1 15.6 79 W 9 G 14 30.47 1031.8 0.00 165 0.008
9 08:00 18.8 14.5 83 W 12 G 16 30.48 1032.2 0.00 125 0.007
9 07:00 17.9 13.6 19.4 16.9 83 WSW 10 G 13 30.47 1031.9 0.00 0 0.007
9 06:00 18.1 14.1 84 W 11 G 15 30.48 1032.3 0.00 0 0.006
9 05:00 17.2 13.2 84 WNW 12 G 16 30.47 1031.9 0.00 0 0.005
9 04:00 17.5 12.9 82 W 13 G 17 30.48 1032.3 0.00 0 0.004
9 03:00 17.7 12.0 78 W 15 G 18 30.50 1032.9 0.00 0 0.003
9 02:00 18.1 11.2 74 W 13 G 16 30.51 1033.1 0.00 0 0.002
9 01:00 19.4 7.0 20.6 18.3 58 W 11 G 16 30.51 1033.3 0.00 0 0.000
9 00:00 19.4 7.0 58 W 11 G 16 30.51 1033.3 0.00 0 0.000
8 23:00 19.0 6.3 57 WSW 4 G 5 30.50 1032.8 0.00 0 0.052
8 22:00 19.6 5.2 53 NNW 9 G 12 30.50 1032.9 0.00 0 0.051
8 21:00 19.2 6.1 56 NNW 7 G 10 30.50 1033.0 0.00 0 0.050
8 20:00 20.0 6.0 54 NNW 7 G 10 30.51 1033.3 0.00 0 0.049
8 19:00 20.6 6.2 25.9 20.6 53 NW 9 G 11 30.49 1032.6 0.00 0 0.047
8 18:00 21.8 5.6 49 NW 10 G 14 30.47 1031.7 0.00 0 0.045
8 17:00 22.5 6.7 50 NW 11 G 17 30.45 1031.2 0.00 0 0.043
8 16:00 24.1 7.7 49 NW 12 G 18 30.42 1030.2 0.00 11 0.041
8 15:00 25.5 8.1 47 WNW 13 G 21 30.40 1029.6 0.00 104 0.036
8 14:00 25.5 6.6 44 NW 20 G 28 30.40 1029.5 0.00 253 0.030
8 13:00 25.2 7.8 25.3 14.7 47 WNW 11 G 18 30.41 1029.7 0.00 346 0.024
8 12:00 24.0 8.0 50 WNW 8 G 16 30.42 1030.2 0.00 394 0.019
8 11:00 22.4 7.0 51 NW 8 G 14 30.44 1030.7 0.00 380 0.014
8 10:00 20.7 10.4 64 WNW 11 G 18 30.45 1031.3 0.00 336 0.010
8 09:00 17.7 8.9 68 WNW 7 G 14 30.44 1031.0 0.00 167 0.008
8 08:00 15.7 8.0 71 NW 6 G 10 30.42 1030.3 0.00 90 0.007
8 07:00 14.7 7.0 20.0 14.6 71 NW 6 G 12 30.41 1029.9 0.00 5 0.006
8 06:00 15.2 7.5 71 NW 7 G 12 30.41 1029.9 0.00 0 0.005
8 05:00 16.3 7.6 68 NW 9 G 15 30.41 1030.0 0.00 0 0.004
8 04:00 16.4 9.9 75 WNW 10 G 14 30.41 1029.9 0.00 0 0.003

Data generated by WxSolution Version 1.9.1.5, Build 2018.05.20.